KNMI Weerbulletins

Hier vind u de KMNI verwachtingen en de waarnemingen

Bron: KNMI website
Laatste update op 24-10-2020 om 17:29
ZCZC
FBNL50 EHDB 241417
WEERBULLETIN VOOR DE LUCHTVAART
.
GELDIG 241500/242100 UTC
.
SITUATIE: AAN DE ZUIDOOSTFLANK VAN EEN LAGEDRUKGEBIED NOORDWEST VAN
DE BRITSE EILANDEN VOERT EEN IN KRACHT TOENEMENDE ZUIDWESTELIJKE
STROMING GELEIDELIJK VOCHTIGERE LUCHT AAN.
.
SIGNIFICANT WEER: AANVANKELIJK IN HET NOORDEN EN OOSTEN LOKAAL LICHTE
TOT MATIGE MOTREGEN. LOKAAL MATIGE TURBULENTIE, IN HET NOORDWESTELIJK
KUSTGEBIED MATIGE, IN DE TWEEDE HELFT VAN DE PERIODE MOGELIJK LOKAAL
ZWARE TURBULENTIE.
.
WIND: ZUIDZUIDWEST 12-16 KN, IN DE KUSTGEBIEDEN 16-20 KN, LANGS DE
KUST EN BOVEN HET IJSSELMEER 20-25 KN. IN HET NOORDWESTELIJK
KUSTGEBIED NEEMT DE WIND GELEIDELIJK TOE NAAR 27-32 KN. IN HET
WADDENGEBIED EN HET NOORDWESTELIJK KUSTGEBIED GELEIDELIJK
UITSCHIETERS 10 KN BOVEN DE GEMIDDELDE WIND.
.
BEWOLKING: BKN SC 2500-4000 VT, LOKAAL 1500-2500 VT EN MET NAME IN
MOTREGEN MOGELIJK 1000-1500 VT EN FEW ST 500-1000 VT. TOPPEN TOT
FL070.
.
ZICHT: MEER DAN 10 KM, IN MOTREGEN 5-8 KM, LOKAAL 3-5 KM.
.
NULGRADEN NIVEAU: FL090-FL100.
.
HOOGTEWINDEN EN TEMPERATUREN:
       15 UTC:       21 UTC:
0500VT 200/20-30 +14 190/25-35 +14
1500VT 200/30-40 +11 200/40-50 +11
3000VT 210/35-45 +08 210/45-60 +10
FL 050 240/35    +06 210/40-55 +09
FL 100 240/25-45 -01 210/40-55 -01
HOOGSTE WINDSNELHEID BOVEN HET (NOORD)WESTEN.
.
THERMIEK: -
.
MAX. TEMPERATUUR: -
.
VOORUITZICHTEN VOOR MORGEN: IN EEN ZUIDWESTELIJKE STROMING TREKT EEN
NNO-ZZW GEORIENTEERD KOUFRONT, GEPOSITIONEERD BOVEN HET MIDDEN, IN DE
OCHTEND OOSTWAARTS HET LAND UIT. OP HET KOUFRONT MATIGE REGEN EN
MOGELIJK INGEBEDDE REGENBUIEN. ACHTER HET KOUFRONT NEEMT DE STROMING
IN KRACHT AF EN WORDT ER POLAIRE LUCHT AANGEVOERD. IN DE OCHTEND IN
DE WESTELIJKE HELFT, EN IN DE MIDDAG LANGS DE WESTKUST EN IN HET
NOORDEN, KOMEN GEISOLEERDE, SOMS GECLUSTERDE REGENBUIEN VOOR MET
VOORAL IN DE KUSTGEBIEDEN KANS OP ONWEER.
.
DAGLICHTPERIODE: 06.06 TOT 16.41 UTC.=
NNNN
Bron: KNMI website
Laatste update op 24-10-2020 om 17:29
ZCZC
FT241100 EHAM     AMSTERDAM/SCHIPHOL   NLD   -3 m.
TAF EHAM 241100Z 2412/2518 20017KT 9999 SCT025
    BECMG 2421/2424 19021G35KT SCT018 BKN040
    TEMPO 2502/2509 6000 RA SHRA SCT008 BKN014 SCT020CB
    BECMG 2505/2508 22013KT SCT025
    PROB40 TEMPO 2509/2518 7000 -SHRA SCT020CB BKN040=
ZCZC
FT241100 EHBK     MAASTRICHT/MAASTRICHT-AACHEN   NLD   114 m.
TAF EHBK 241112Z 2412/2518 20015G25KT 9999 BKN025
    TEMPO 2506/2512 6000 RA
    BECMG 2507/2510 21012KT=
ZCZC
FT241100 EHGG     GRONINGEN/EELDE   NLD   5 m.
TAF EHGG 241112Z 2412/2518 20014KT 9999 BKN020
    BECMG 2418/2421 18020G30KT
    BECMG 2506/2509 21012KT
    TEMPO 2506/2510 6000 RA SHRA BKN014 FEW020CB
    BECMG 2515/2518 18009KT=
ZCZC
FT241100 EHLE     LELYSTAD/LELYSTAD   NLD   -3 m.
TAF EHLE 241101Z 2412/2518 20017KT 9999 SCT025
    BECMG 2421/2424 19021G31KT SCT018 BKN040
    TEMPO 2503/2510 6000 RA SHRA SCT008 BKN014 SCT020CB
    BECMG 2506/2509 22013KT=
ZCZC
FT241100 EHRD     ROTTERDAM/THE HAGUE AIRPORT   NLD   -5 m.
TAF COR EHRD 241100Z 2412/2518 20017KT 9999 SCT025
    BECMG 2421/2424 19021G35KT SCT018 BKN040
    TEMPO 2502/2509 6000 RA SHRA SCT008 BKN014 SCT020CB
    BECMG 2505/2508 22013KT SCT025
    PROB30 TEMPO 2509/2518 7000 -SHRA SCT020CB BKN040=
ZCZC
FT241100 EHEH AAA EINDHOVEN/EINDHOVEN   NLD   22 m.
TAF AMD EHEH 241406Z 2412/2518 20012G22KT 9999 SCT018 BKN025
    TEMPO 2414/2416 4000 RADZ SCT007 BKN012
    TEMPO 2416/2421 SCT012 BKN018
    BECMG 2418/2421 19015G26KT
    TEMPO 2504/2510 4500 RA -SHRA BKN012 SCT015CB BKN020
    BECMG 2509/2511 20012KT FEW012 SCT030=
ZCZC
FC241300 EHGR     GILZE-RIJEN/GILZE-RIJEN   NLD   14 m.
TAF EHGR 241300Z NIL=
ZCZC
FC241300 EHKD     DE KOOY/DE KOOY   NLD   1 m.
TAF EHKD 241245Z 2413/2501 19020G30KT 9999 FEW015 SCT040
    PROB40 TEMPO 2413/2501 SCT015 BKN040
    BECMG 2418/2421 19022G37KT=
ZCZC
FC241300 EHLW     LEEUWARDEN/LEEUWARDEN   NLD   1 m.
TAF EHLW 241248Z 2413/2501 19015G25KT 9999 SCT020 BKN040
    PROB40 TEMPO 2415/2423 SCT012 BKN015
    BECMG 2418/2421 19020G32KT=
ZCZC
FC241300 EHVK     VOLKEL/VOLKEL   NLD   21 m.
TAF EHVK 241252Z 2413/2501 20014G24KT 9999 SCT018 BKN025
    TEMPO 2412/2421 SCT012 BKN016=
ZCZC
FC241300 EHWO     WOENSDRECHT/WOENSDRECHT   NLD   19 m.
TAF EHWO 241300Z NIL=
Bron: KNMI website
Laatste update op 24-10-2020 om 17:29
ZCZC
SA241455 EHKD     DE KOOY/DE KOOY   NLD   1 m.
METAR EHKD 241455Z AUTO 19018KT 160V220 9999 FEW019 SCT028 OVC034
15/11 Q1005
BLU NOSIG=
ZCZC
SA241455 EHFD     F3-FB-1   NLD   50 m.
METAR EHFD 241455Z AUTO /////KT 9999 FEW016/// SCT021/// BKN025///
14/11 Q1000=
ZCZC
SA241455 EHAM     AMSTERDAM/SCHIPHOL   NLD   -3 m.
METAR EHAM 241455Z 19020KT 9999 SCT017 BKN028 15/12 Q1006 NOSIG=
ZCZC
SA241455 EHVL     VLIELAND   NLD   10 m.
METAR EHVL 241455Z AUTO 20023KT 9999 SCT019 BKN023 BKN027 14/11 Q1004
 WHT=
ZCZC
SA241455 EHJR     K13-A   NLD   37 m.
METAR EHJR 241455Z AUTO 00000KT //// // ///////// 14/12 Q1002 RE//
W14/H27=
ZCZC
SA241455 EHLE     LELYSTAD/LELYSTAD   NLD   -3 m.
METAR EHLE 241455Z AUTO 18014KT 150V210 9999 BKN017 OVC021 15/11
Q1007 TEMPO 7000 -RADZ=
ZCZC
SA241455 EHLW     LEEUWARDEN/LEEUWARDEN   NLD   1 m.
METAR EHLW 241455Z AUTO 19014KT 150V220 9999 BKN031 OVC037 14/10
Q1006 BLU=
ZCZC
SA241455 EHDL     ARNHEM/DEELEN   NLD   48 m.
METAR EHDL 241455Z AUTO VRB12KT 6000 -DZ FEW005 BKN007 BKN008 13/13
Q1008 REDZ GRN=
ZCZC
SA241455 EHGG     GRONINGEN/EELDE   NLD   5 m.
METAR EHGG 241455Z AUTO 20013KT 170V230 9999 BKN034 BKN038 14/10
Q1007 NOSIG=
ZCZC
SA241455 EHSC     LICHTEILAND GOEREE   NLD   22 m.
METAR EHSC 241455Z AUTO 20024KT 9999 ///////// 15/12 Q1005 W14/H13=
ZCZC
SA241455 EHSA     EURO PLATFORM   NLD   19 m.
METAR EHSA 241455Z AUTO 18024KT 9999 ///////// 15/12 Q1004 W13/H18=
ZCZC
SA241455 EHWO     WOENSDRECHT/WOENSDRECHT   NLD   19 m.
METAR EHWO 241455Z AUTO 19010KT 140V230 9999 SCT019 BKN023 OVC026
16/12 Q1007 WHT=
ZCZC
SA241455 EHRD     ROTTERDAM/THE HAGUE AIRPORT   NLD   -5 m.
METAR EHRD 241455Z AUTO 19013KT 150V220 9999 SCT028 OVC031 15/12
Q1006 NOSIG=
ZCZC
SA241455 EHGR     GILZE-RIJEN/GILZE-RIJEN   NLD   14 m.
METAR EHGR 241455Z AUTO 19013KT 090V230 9999 FEW014 OVC041 15/13
Q1008 BLU=
ZCZC
SA241455 EHEH     EINDHOVEN/EINDHOVEN   NLD   22 m.
METAR EHEH 241455Z AUTO 20011KT 170V230 9999 SCT015 BKN018 BKN036
14/13 Q1009
WHT TEMPO 4000 -DZRA SCT007 BKN012=
ZCZC
SA241455 EHVK     VOLKEL/VOLKEL   NLD   21 m.
METAR EHVK 241455Z AUTO 19010KT 140V230 9999 FEW006 SCT008 BKN010
14/13 Q1009 REDZ GRN=
ZCZC
SA241455 EHBK     MAASTRICHT/MAASTRICHT-AACHEN   NLD   114 m.
METAR EHBK 241455Z AUTO 21019KT 170V240 9999 SCT018 OVC034 15/11
Q1010 NOSIG=
ZCZC
SA241455 EHFZ     F16-A   NLD   43 m.
METAR EHFZ 241455Z NIL=
ZCZC
SA241455 EHKV     K14-FA-1C   NLD   41 m.
METAR EHKV 241455Z AUTO 21027G40KT 9999 FEW008 SCT011 BKN013 15/13
Q1002=
ZCZC
SA241455 EHMG     L9-FF-1   NLD   44 m.
METAR EHMG 241455Z AUTO 20035KT 9999 SCT030 OVC034 14/11 Q1005=
ZCZC
SA241455 EHMA     AWG-1   NLD   40 m.
METAR EHMA 241455Z AUTO 20026KT 9999 SCT035 BKN040 14/10 Q1005=
ZCZC
SA241455 EHDV     D15-FA-1   NLD   42 m.
METAR EHDV 241455Z AUTO 18033KT 9999 FEW012/// SCT021/// 14/12 Q0997=
ZCZC
SA241455 EHAK     A12-CPP   NLD   48 m.
METAR EHAK 241455Z AUTO 19032KT 9999 SCT014/// BKN016/// BKN032///
14/11 Q0997=
ZCZC
SA241455 EHQE     HOORN-A   NLD   50 m.
METAR EHQE 241455Z AUTO 16033KT //// // ////// 15/12 Q1003 RE//=
ZCZC
SA241455 EHJA     J6-A   NLD   45 m.
METAR EHJA 241455Z AUTO 18027KT 9999 FEW010/// SCT015/// BKN018///
14/12 Q1001=
ZCZC
SA241455 EHPG     P11-B   NLD   41 m.
METAR EHPG 241455Z AUTO 20031KT 140V280 9000 FEW022 BKN025 BKN028
15/12 Q1002=
ZCZC
SA241455 EHHW     BUITENGAATS/BG-OHVS2      42 m.
METAR EHHW 241455Z AUTO 21026KT 9999 FEW012/// SCT042/// 14/11 Q1005=
ZCZC
SA241455 EHFS     VLISSINGEN AWS   NLD   8 m.
METAR EHFS 241455Z AUTO 19020KT 9999 FEW022/// SCT036/// 16/12 Q1006=
ZCZC
SA241455 EHSG     BSA   NLD   43 m.
METAR EHSG 241455Z AUTO 20023KT //// // FEW027/// BKN030/// OVC035///
15/12 Q1004 RE//=